Magic Kingdom, Florida
Current Conditions -  °F | °C
As of 6:50 PM on Friday 24 Oct 2014 (Local Time) from KISM Reporting Station
Clear Clear  
Wind Chill: 73°   Ceiling: Unl
Heat Index: 73°   Visibility: 10mi
Dew Point: 57°   Wind: 9mph
Humidity: 57%   Direction: 60°ENE
Pressure: 29.92"   Gusts: NA
Location:  28.42°N, 81.58°W
Report Text: KISM 242250Z 06008KT 10SM SKC 23/14 A2992
Loading
Personal Weather Stations






























Interactive Weather Map
Tropical Storm Tracking
New forecast layout! Learn more

10-Day Weather Forecast

Advertisements
Track Severe Weather on mobile